sensor_id;sensor_type;location;lat;lon;timestamp;pressure;altitude;pressure_sealevel;temperature;humidity
59531;BME280;45349;48.692;8.186;2023-01-29T00:01:11;99801.47;;;-0.34;84.54
59531;BME280;45349;48.692;8.186;2023-01-29T00:03:38;99797.25;;;-0.37;84.91
59531;BME280;45349;48.692;8.186;2023-01-29T00:06:06;99797.16;;;-0.34;84.59
59531;BME280;45349;48.692;8.186;2023-01-29T00:08:34;99796.28;;;-0.33;85.00
59531;BME280;45349;48.692;8.186;2023-01-29T00:11:01;99794.66;;;-0.35;85.15
59531;BME280;45349;48.692;8.186;2023-01-29T00:13:28;99792.81;;;-0.32;85.36
59531;BME280;45349;48.692;8.186;2023-01-29T00:15:56;99780.88;;;-0.33;85.31
59531;BME280;45349;48.692;8.186;2023-01-29T00:18:23;99783.75;;;-0.42;85.09
59531;BME280;45349;48.692;8.186;2023-01-29T00:20:50;99780.97;;;-0.36;84.89
59531;BME280;45349;48.692;8.186;2023-01-29T00:23:17;99774.66;;;-0.51;85.03
59531;BME280;45349;48.692;8.186;2023-01-29T00:25:45;99768.44;;;-0.43;85.00
59531;BME280;45349;48.692;8.186;2023-01-29T00:28:12;99767.53;;;-0.42;85.06
59531;BME280;45349;48.692;8.186;2023-01-29T00:30:39;99763.34;;;-0.45;84.97
59531;BME280;45349;48.692;8.186;2023-01-29T00:33:06;99763.44;;;-0.48;85.54
59531;BME280;45349;48.692;8.186;2023-01-29T00:35:33;99760.63;;;-0.40;85.45
59531;BME280;45349;48.692;8.186;2023-01-29T00:37:59;99764.09;;;-0.41;85.77
59531;BME280;45349;48.692;8.186;2023-01-29T00:40:26;99759.06;;;-0.45;85.95
59531;BME280;45349;48.692;8.186;2023-01-29T00:42:54;99771.03;;;-0.45;85.33
59531;BME280;45349;48.692;8.186;2023-01-29T00:45:38;99767.53;;;-0.42;84.95
59531;BME280;45349;48.692;8.186;2023-01-29T00:48:05;99762.56;;;-0.47;85.26
59531;BME280;45349;48.692;8.186;2023-01-29T00:50:31;99768.56;;;-0.48;85.24
59531;BME280;45349;48.692;8.186;2023-01-29T00:52:58;99766.84;;;-0.48;85.42
59531;BME280;45349;48.692;8.186;2023-01-29T00:55:24;99766.00;;;-0.48;85.41
59531;BME280;45349;48.692;8.186;2023-01-29T00:57:51;99771.09;;;-0.47;85.29
59531;BME280;45349;48.692;8.186;2023-01-29T01:00:20;99773.56;;;-0.43;85.04
59531;BME280;45349;48.692;8.186;2023-01-29T01:03:12;99780.59;;;-0.50;85.16
59531;BME280;45349;48.692;8.186;2023-01-29T01:06:04;99770.41;;;-0.52;85.23
59531;BME280;45349;48.692;8.186;2023-01-29T01:08:31;99772.97;;;-0.52;85.34
59531;BME280;45349;48.692;8.186;2023-01-29T01:11:15;99770.41;;;-0.52;85.29
59531;BME280;45349;48.692;8.186;2023-01-29T01:13:42;99768.75;;;-0.53;85.47
59531;BME280;45349;48.692;8.186;2023-01-29T01:16:12;99772.25;;;-0.55;85.65
59531;BME280;45349;48.692;8.186;2023-01-29T01:18:39;99775.66;;;-0.55;85.42
59531;BME280;45349;48.692;8.186;2023-01-29T01:21:06;99777.44;;;-0.57;85.54
59531;BME280;45349;48.692;8.186;2023-01-29T01:23:33;99775.66;;;-0.55;85.11
59531;BME280;45349;48.692;8.186;2023-01-29T01:26:00;99778.13;;;-0.52;85.58
59531;BME280;45349;48.692;8.186;2023-01-29T01:28:27;99777.31;;;-0.54;85.21
59531;BME280;45349;48.692;8.186;2023-01-29T01:30:54;99777.13;;;-0.48;85.69
59531;BME280;45349;48.692;8.186;2023-01-29T01:33:22;99782.34;;;-0.51;85.81
59531;BME280;45349;48.692;8.186;2023-01-29T01:35:49;99774.50;;;-0.46;85.51
59531;BME280;45349;48.692;8.186;2023-01-29T01:38:15;99785.03;;;-0.54;85.10
59531;BME280;45349;48.692;8.186;2023-01-29T01:40:44;99779.72;;;-0.49;85.12
59531;BME280;45349;48.692;8.186;2023-01-29T01:43:11;99777.13;;;-0.48;84.86
59531;BME280;45349;48.692;8.186;2023-01-29T01:45:38;99780.56;;;-0.49;84.85
59531;BME280;45349;48.692;8.186;2023-01-29T01:48:08;99778.94;;;-0.51;84.92
59531;BME280;45349;48.692;8.186;2023-01-29T01:50:42;99778.94;;;-0.51;84.91
59531;BME280;45349;48.692;8.186;2023-01-29T01:53:38;99777.41;;;-0.55;84.83
59531;BME280;45349;48.692;8.186;2023-01-29T01:56:33;99780.00;;;-0.57;84.46
59531;BME280;45349;48.692;8.186;2023-01-29T01:59:06;99780.78;;;-0.55;84.77
59531;BME280;45349;48.692;8.186;2023-01-29T02:01:34;99786.69;;;-0.53;84.35
59531;BME280;45349;48.692;8.186;2023-01-29T02:04:07;99784.91;;;-0.51;84.79
59531;BME280;45349;48.692;8.186;2023-01-29T02:06:54;99783.94;;;-0.47;83.94
59531;BME280;45349;48.692;8.186;2023-01-29T02:09:44;99777.31;;;-0.54;84.23
59531;BME280;45349;48.692;8.186;2023-01-29T02:12:13;99780.69;;;-0.52;85.14
59531;BME280;45349;48.692;8.186;2023-01-29T02:14:42;99778.28;;;-0.56;84.61
59531;BME280;45349;48.692;8.186;2023-01-29T02:17:11;99778.31;;;-0.58;84.82
59531;BME280;45349;48.692;8.186;2023-01-29T02:19:46;99772.25;;;-0.55;85.56
59531;BME280;45349;48.692;8.186;2023-01-29T02:22:25;99779.00;;;-0.53;85.57
59531;BME280;45349;48.692;8.186;2023-01-29T02:25:02;99780.69;;;-0.52;85.55
59531;BME280;45349;48.692;8.186;2023-01-29T02:27:57;99782.28;;;-0.49;84.04
59531;BME280;45349;48.692;8.186;2023-01-29T02:30:27;99782.16;;;-0.45;83.89
59531;BME280;45349;48.692;8.186;2023-01-29T02:32:59;99781.09;;;-0.39;83.07
59531;BME280;45349;48.692;8.186;2023-01-29T02:35:39;99774.28;;;-0.40;83.11
59531;BME280;45349;48.692;8.186;2023-01-29T02:38:12;99776.94;;;-0.43;83.26
59531;BME280;45349;48.692;8.186;2023-01-29T02:40:44;99774.38;;;-0.43;83.83
59531;BME280;45349;48.692;8.186;2023-01-29T02:43:26;99769.22;;;-0.41;84.16
59531;BME280;45349;48.692;8.186;2023-01-29T02:46:00;99773.47;;;-0.40;84.32
59531;BME280;45349;48.692;8.186;2023-01-29T02:48:36;99770.00;;;-0.39;86.40
59531;BME280;45349;48.692;8.186;2023-01-29T02:51:07;99775.03;;;-0.36;85.85
59531;BME280;45349;48.692;8.186;2023-01-29T02:53:39;99774.19;;;-0.37;85.01
59531;BME280;45349;48.692;8.186;2023-01-29T02:56:10;99777.69;;;-0.39;84.33
59531;BME280;45349;48.692;8.186;2023-01-29T02:58:42;99770.00;;;-0.39;85.79
59531;BME280;45349;48.692;8.186;2023-01-29T03:01:13;99779.28;;;-0.35;84.41
59531;BME280;45349;48.692;8.186;2023-01-29T03:03:41;99778.53;;;-0.39;83.34
59531;BME280;45349;48.692;8.186;2023-01-29T03:06:14;99774.44;;;-0.45;83.34
59531;BME280;45349;48.692;8.186;2023-01-29T03:08:52;99778.63;;;-0.42;84.04
59531;BME280;45349;48.692;8.186;2023-01-29T03:11:21;99780.19;;;-0.38;83.66
59531;BME280;45349;48.692;8.186;2023-01-29T03:13:52;99781.34;;;-0.47;82.56
59531;BME280;45349;48.692;8.186;2023-01-29T03:16:24;99777.84;;;-0.44;83.15
59531;BME280;45349;48.692;8.186;2023-01-29T03:18:56;99773.78;;;-0.50;82.90
59531;BME280;45349;48.692;8.186;2023-01-29T03:21:29;99772.28;;;-0.57;83.41
59531;BME280;45349;48.692;8.186;2023-01-29T03:24:16;99772.56;;;-0.65;83.08
59531;BME280;45349;48.692;8.186;2023-01-29T03:27:06;99765.66;;;-0.63;83.87
59531;BME280;45349;48.692;8.186;2023-01-29T03:29:54;99762.44;;;-0.69;83.94
59531;BME280;45349;48.692;8.186;2023-01-29T03:33:01;99754.94;;;-0.74;84.64
59531;BME280;45349;48.692;8.186;2023-01-29T03:35:33;99764.38;;;-0.76;86.47
59531;BME280;45349;48.692;8.186;2023-01-29T03:38:03;99764.44;;;-0.78;86.10
59531;BME280;45349;48.692;8.186;2023-01-29T03:40:35;99772.38;;;-0.85;85.87
59531;BME280;45349;48.692;8.186;2023-01-29T03:43:08;99768.34;;;-0.93;86.31
59531;BME280;45349;48.692;8.186;2023-01-29T03:45:49;99766.78;;;-0.98;86.70
59531;BME280;45349;48.692;8.186;2023-01-29T03:48:28;99772.63;;;-0.93;87.29
59531;BME280;45349;48.692;8.186;2023-01-29T03:51:06;99771.88;;;-0.97;86.04
59531;BME280;45349;48.692;8.186;2023-01-29T03:53:41;99777.09;;;-1.00;87.14
59531;BME280;45349;48.692;8.186;2023-01-29T03:56:20;99773.13;;;-1.09;87.08
59531;BME280;45349;48.692;8.186;2023-01-29T03:58:54;99767.31;;;-1.14;87.04
59531;BME280;45349;48.692;8.186;2023-01-29T04:01:38;99760.03;;;-1.28;88.33
59531;BME280;45349;48.692;8.186;2023-01-29T04:04:11;99765.53;;;-1.40;89.83
59531;BME280;45349;48.692;8.186;2023-01-29T04:06:42;99768.47;;;-1.53;90.52
59531;BME280;45349;48.692;8.186;2023-01-29T04:09:13;99767.19;;;-1.68;92.04
59531;BME280;45349;48.692;8.186;2023-01-29T04:11:47;99763.09;;;-1.73;92.88
59531;BME280;45349;48.692;8.186;2023-01-29T04:14:15;99764.97;;;-1.79;92.59
59531;BME280;45349;48.692;8.186;2023-01-29T04:16:48;99759.88;;;-1.80;93.61
59531;BME280;45349;48.692;8.186;2023-01-29T04:19:20;99768.69;;;-1.90;94.40
59531;BME280;45349;48.692;8.186;2023-01-29T04:21:49;99762.78;;;-1.93;94.82
59531;BME280;45349;48.692;8.186;2023-01-29T04:24:19;99762.06;;;-1.98;95.16
59531;BME280;45349;48.692;8.186;2023-01-29T04:26:54;99763.03;;;-2.02;94.74
59531;BME280;45349;48.692;8.186;2023-01-29T04:29:36;99759.97;;;-2.13;94.73
59531;BME280;45349;48.692;8.186;2023-01-29T04:32:15;99761.81;;;-2.18;94.91
59531;BME280;45349;48.692;8.186;2023-01-29T04:34:52;99760.22;;;-2.23;95.95
59531;BME280;45349;48.692;8.186;2023-01-29T04:37:32;99757.75;;;-2.27;95.88
59531;BME280;45349;48.692;8.186;2023-01-29T04:40:11;99762.13;;;-2.31;96.33
59531;BME280;45349;48.692;8.186;2023-01-29T04:42:43;99758.81;;;-2.34;97.04
59531;BME280;45349;48.692;8.186;2023-01-29T04:45:19;99762.38;;;-2.40;96.85
59531;BME280;45349;48.692;8.186;2023-01-29T04:47:53;99759.19;;;-2.48;97.88
59531;BME280;45349;48.692;8.186;2023-01-29T04:50:28;99756.72;;;-2.53;98.26
59531;BME280;45349;48.692;8.186;2023-01-29T04:53:04;99749.28;;;-2.61;98.64
59531;BME280;45349;48.692;8.186;2023-01-29T04:55:38;99751.84;;;-2.62;98.09
59531;BME280;45349;48.692;8.186;2023-01-29T04:58:10;99752.09;;;-2.72;98.66
59531;BME280;45349;48.692;8.186;2023-01-29T05:00:41;99751.38;;;-2.77;98.47
59531;BME280;45349;48.692;8.186;2023-01-29T05:03:11;99755.84;;;-2.85;99.25
59531;BME280;45349;48.692;8.186;2023-01-29T05:05:40;99749.13;;;-2.89;99.43
59531;BME280;45349;48.692;8.186;2023-01-29T05:08:09;99754.25;;;-2.89;100.00
59531;BME280;45349;48.692;8.186;2023-01-29T05:10:37;99758.34;;;-2.84;100.00
59531;BME280;45349;48.692;8.186;2023-01-29T05:13:07;99756.53;;;-2.78;100.00
59531;BME280;45349;48.692;8.186;2023-01-29T05:15:38;99756.28;;;-2.68;100.00
59531;BME280;45349;48.692;8.186;2023-01-29T05:18:06;99764.59;;;-2.61;99.25
59531;BME280;45349;48.692;8.186;2023-01-29T05:20:38;99763.75;;;-2.61;100.00
59531;BME280;45349;48.692;8.186;2023-01-29T05:23:08;99770.44;;;-2.56;100.00
59531;BME280;45349;48.692;8.186;2023-01-29T05:25:35;99778.91;;;-2.54;100.00
59531;BME280;45349;48.692;8.186;2023-01-29T05:28:02;99786.28;;;-2.41;98.90
59531;BME280;45349;48.692;8.186;2023-01-29T05:30:32;99778.53;;;-2.38;99.07
59531;BME280;45349;48.692;8.186;2023-01-29T05:32:59;99774.03;;;-2.30;98.71
59531;BME280;45349;48.692;8.186;2023-01-29T05:35:25;99765.56;;;-2.32;98.71
59531;BME280;45349;48.692;8.186;2023-01-29T05:37:54;99759.56;;;-2.31;98.52
59531;BME280;45349;48.692;8.186;2023-01-29T05:40:21;99741.69;;;-2.31;98.98
59531;BME280;45349;48.692;8.186;2023-01-29T05:42:47;99740.81;;;-2.31;99.93
59531;BME280;45349;48.692;8.186;2023-01-29T05:45:15;99732.28;;;-2.30;99.83
59531;BME280;45349;48.692;8.186;2023-01-29T05:47:41;99722.13;;;-2.33;99.53
59531;BME280;45349;48.692;8.186;2023-01-29T05:50:09;99729.94;;;-2.38;99.69
59531;BME280;45349;48.692;8.186;2023-01-29T05:55:19;99760.06;;;-2.49;98.70
59531;BME280;45349;48.692;8.186;2023-01-29T05:57:45;99752.38;;;-2.49;98.97
59531;BME280;45349;48.692;8.186;2023-01-29T06:00:13;99732.00;;;-2.53;98.38
59531;BME280;45349;48.692;8.186;2023-01-29T06:02:39;99738.09;;;-2.58;97.91
59531;BME280;45349;48.692;8.186;2023-01-29T06:05:07;99757.75;;;-2.60;98.53
59531;BME280;45349;48.692;8.186;2023-01-29T06:07:34;99757.75;;;-2.60;98.27
59531;BME280;45349;48.692;8.186;2023-01-29T06:10:01;99751.66;;;-2.55;98.61
59531;BME280;45349;48.692;8.186;2023-01-29T06:12:28;99751.59;;;-2.52;97.86
59531;BME280;45349;48.692;8.186;2023-01-29T06:14:55;99760.06;;;-2.49;98.39
59531;BME280;45349;48.692;8.186;2023-01-29T06:17:21;99769.34;;;-2.47;98.58
59531;BME280;45349;48.692;8.186;2023-01-29T06:19:48;99777.75;;;-2.42;97.55
59531;BME280;45349;48.692;8.186;2023-01-29T06:22:14;99776.75;;;-2.36;96.79
59531;BME280;45349;48.692;8.186;2023-01-29T06:24:41;99780.78;;;-2.27;96.12
59531;BME280;45349;48.692;8.186;2023-01-29T06:27:08;99784.13;;;-2.25;96.38
59531;BME280;45349;48.692;8.186;2023-01-29T06:29:35;99787.53;;;-2.25;96.29
59531;BME280;45349;48.692;8.186;2023-01-29T06:32:02;99789.94;;;-2.18;96.08
59531;BME280;45349;48.692;8.186;2023-01-29T06:34:29;99790.75;;;-2.16;95.92
59531;BME280;45349;48.692;8.186;2023-01-29T06:36:56;99788.13;;;-2.15;96.02
59531;BME280;45349;48.692;8.186;2023-01-29T06:39:26;99784.59;;;-2.11;95.66
59531;BME280;45349;48.692;8.186;2023-01-29T06:41:55;99781.16;;;-2.10;94.28
59531;BME280;45349;48.692;8.186;2023-01-29T06:44:22;99781.16;;;-2.10;94.35
59531;BME280;45349;48.692;8.186;2023-01-29T06:46:49;99769.25;;;-2.11;93.31
59531;BME280;45349;48.692;8.186;2023-01-29T06:49:16;99770.97;;;-2.11;93.54
59531;BME280;45349;48.692;8.186;2023-01-29T06:51:42;99765.84;;;-2.11;92.59
59531;BME280;45349;48.692;8.186;2023-01-29T06:54:09;99762.28;;;-2.05;93.48
59531;BME280;45349;48.692;8.186;2023-01-29T06:56:36;99773.31;;;-2.03;92.59
59531;BME280;45349;48.692;8.186;2023-01-29T06:59:03;99785.19;;;-2.01;92.58
59531;BME280;45349;48.692;8.186;2023-01-29T07:01:30;99780.03;;;-1.99;92.38
59531;BME280;45349;48.692;8.186;2023-01-29T07:03:58;99780.91;;;-2.00;92.49
59531;BME280;45349;48.692;8.186;2023-01-29T07:06:26;99772.28;;;-1.96;92.97
59531;BME280;45349;48.692;8.186;2023-01-29T07:08:53;99772.13;;;-1.91;93.66
59531;BME280;45349;48.692;8.186;2023-01-29T07:11:20;99759.41;;;-1.93;92.90
59531;BME280;45349;48.692;8.186;2023-01-29T07:13:47;99762.69;;;-1.89;92.14
59531;BME280;45349;48.692;8.186;2023-01-29T07:16:13;99749.91;;;-1.89;91.79
59531;BME280;45349;48.692;8.186;2023-01-29T07:18:40;99760.22;;;-1.93;92.32
59531;BME280;45349;48.692;8.186;2023-01-29T07:21:08;99760.22;;;-1.93;93.03
59531;BME280;45349;48.692;8.186;2023-01-29T07:23:34;99772.81;;;-1.85;93.00
59531;BME280;45349;48.692;8.186;2023-01-29T07:26:02;99769.56;;;-1.91;92.97
59531;BME280;45349;48.692;8.186;2023-01-29T07:28:28;99789.16;;;-1.90;92.54
59531;BME280;45349;48.692;8.186;2023-01-29T07:30:56;99791.72;;;-1.90;93.56
59531;BME280;45349;48.692;8.186;2023-01-29T07:33:23;99793.19;;;-1.82;93.24
59531;BME280;45349;48.692;8.186;2023-01-29T07:35:50;99794.63;;;-1.71;93.55
59531;BME280;45349;48.692;8.186;2023-01-29T07:38:19;99803.66;;;-1.59;93.70
59531;BME280;45349;48.692;8.186;2023-01-29T07:40:45;99803.31;;;-1.47;93.52
59531;BME280;45349;48.692;8.186;2023-01-29T07:43:12;99802.06;;;-1.34;92.72
59531;BME280;45349;48.692;8.186;2023-01-29T07:45:39;99812.75;;;-1.21;92.65
59531;BME280;45349;48.692;8.186;2023-01-29T07:48:08;99809.81;;;-1.08;91.27
59531;BME280;45349;48.692;8.186;2023-01-29T07:50:35;99812.91;;;-0.97;89.77
59531;BME280;45349;48.692;8.186;2023-01-29T07:53:02;99815.09;;;-0.86;87.36
59531;BME280;45349;48.692;8.186;2023-01-29T07:55:31;99819.72;;;-0.69;87.37
59531;BME280;45349;48.692;8.186;2023-01-29T07:57:59;99819.41;;;-0.60;87.26
59531;BME280;45349;48.692;8.186;2023-01-29T08:00:26;99818.38;;;-0.54;85.97
59531;BME280;45349;48.692;8.186;2023-01-29T08:02:53;99821.81;;;-0.55;86.12
59531;BME280;45349;48.692;8.186;2023-01-29T08:05:19;99819.34;;;-0.58;86.01
59531;BME280;45349;48.692;8.186;2023-01-29T08:07:51;99821.00;;;-0.55;86.22
59531;BME280;45349;48.692;8.186;2023-01-29T08:10:19;99836.00;;;-0.45;86.31
59531;BME280;45349;48.692;8.186;2023-01-29T08:12:47;99847.06;;;-0.42;86.03
59531;BME280;45349;48.692;8.186;2023-01-29T08:15:13;99853.03;;;-0.42;83.78
59531;BME280;45349;48.692;8.186;2023-01-29T08:17:40;99859.09;;;-0.45;84.67
59531;BME280;45349;48.692;8.186;2023-01-29T08:20:09;99860.00;;;-0.46;84.14
59531;BME280;45349;48.692;8.186;2023-01-29T08:22:36;99862.25;;;-0.36;84.92
59531;BME280;45349;48.692;8.186;2023-01-29T08:25:03;99866.88;;;-0.21;84.78
59531;BME280;45349;48.692;8.186;2023-01-29T08:27:29;99864.41;;;-0.24;83.61
59531;BME280;45349;48.692;8.186;2023-01-29T08:29:57;99861.53;;;-0.14;83.80
59531;BME280;45349;48.692;8.186;2023-01-29T08:32:24;99863.25;;;-0.15;84.49
59531;BME280;45349;48.692;8.186;2023-01-29T08:34:50;99857.97;;;-0.10;84.06
59531;BME280;45349;48.692;8.186;2023-01-29T08:37:17;99863.06;;;-0.09;83.51
59531;BME280;45349;48.692;8.186;2023-01-29T08:39:44;99866.47;;;-0.08;83.08
59531;BME280;45349;48.692;8.186;2023-01-29T08:42:11;99865.03;;;-0.17;81.12
59531;BME280;45349;48.692;8.186;2023-01-29T08:44:37;99855.06;;;-0.26;82.14
59531;BME280;45349;48.692;8.186;2023-01-29T08:47:05;99867.28;;;-0.33;82.27
59531;BME280;45349;48.692;8.186;2023-01-29T08:49:34;99865.09;;;-0.19;82.15
59531;BME280;45349;48.692;8.186;2023-01-29T08:52:01;99864.34;;;-0.22;81.49
59531;BME280;45349;48.692;8.186;2023-01-29T08:54:27;99861.69;;;-0.19;81.89
59531;BME280;45349;48.692;8.186;2023-01-29T08:56:54;99861.84;;;-0.24;82.05
59531;BME280;45349;48.692;8.186;2023-01-29T08:59:21;99862.53;;;-0.19;82.63
59531;BME280;45349;48.692;8.186;2023-01-29T09:01:48;99858.97;;;-0.14;82.07
59531;BME280;45349;48.692;8.186;2023-01-29T09:04:16;99862.25;;;-0.11;81.18
59531;BME280;45349;48.692;8.186;2023-01-29T09:06:42;99863.81;;;-0.05;80.74
59531;BME280;45349;48.692;8.186;2023-01-29T09:09:09;99861.28;;;-0.07;80.97
59531;BME280;45349;48.692;8.186;2023-01-29T09:11:36;99856.00;;;-0.02;80.21
59531;BME280;45349;48.692;8.186;2023-01-29T09:14:04;99850.19;;;-0.07;80.52
59531;BME280;45349;48.692;8.186;2023-01-29T09:16:31;99848.72;;;0.09;80.60
59531;BME280;45349;48.692;8.186;2023-01-29T09:18:58;99854.44;;;0.18;78.73
59531;BME280;45349;48.692;8.186;2023-01-29T09:21:26;99857.06;;;0.16;78.78
59531;BME280;45349;48.692;8.186;2023-01-29T09:23:52;99853.09;;;0.31;78.94
59531;BME280;45349;48.692;8.186;2023-01-29T09:26:19;99865.38;;;0.23;78.68
59531;BME280;45349;48.692;8.186;2023-01-29T09:28:45;99868.47;;;0.33;78.21
59531;BME280;45349;48.692;8.186;2023-01-29T09:31:12;99872.44;;;0.41;78.08
59531;BME280;45349;48.692;8.186;2023-01-29T09:33:38;99884.94;;;0.51;77.77
59531;BME280;45349;48.692;8.186;2023-01-29T09:36:06;99889.41;;;0.46;78.24
59531;BME280;45349;48.692;8.186;2023-01-29T09:38:34;99887.84;;;0.65;78.57
59531;BME280;45349;48.692;8.186;2023-01-29T09:41:06;99891.69;;;0.77;77.72
59531;BME280;45349;48.692;8.186;2023-01-29T09:43:41;99883.72;;;0.85;75.87
59531;BME280;45349;48.692;8.186;2023-01-29T09:46:16;99878.88;;;0.99;76.40
59531;BME280;45349;48.692;8.186;2023-01-29T09:48:44;99860.47;;;0.88;77.40
59531;BME280;45349;48.692;8.186;2023-01-29T09:51:23;99851.06;;;1.09;77.65
59531;BME280;45349;48.692;8.186;2023-01-29T09:53:59;99842.75;;;1.25;75.93
59531;BME280;45349;48.692;8.186;2023-01-29T09:56:29;99828.50;;;1.38;74.82
59531;BME280;45349;48.692;8.186;2023-01-29T09:58:56;99813.38;;;1.51;74.26
59531;BME280;45349;48.692;8.186;2023-01-29T10:01:31;99810.16;;;1.67;75.17
59531;BME280;45349;48.692;8.186;2023-01-29T10:04:12;99813.69;;;1.85;73.27
59531;BME280;45349;48.692;8.186;2023-01-29T10:06:55;99814.19;;;1.93;71.89
59531;BME280;45349;48.692;8.186;2023-01-29T10:09:53;99800.09;;;2.02;70.96
59531;BME280;45349;48.692;8.186;2023-01-29T10:12:38;99814.03;;;1.98;69.76
59531;BME280;45349;48.692;8.186;2023-01-29T10:15:18;99807.47;;;1.70;69.46
59531;BME280;45349;48.692;8.186;2023-01-29T10:17:56;99813.09;;;1.59;68.81
59531;BME280;45349;48.692;8.186;2023-01-29T10:20:37;99809.13;;;1.50;69.12
59531;BME280;45349;48.692;8.186;2023-01-29T10:23:21;99808.03;;;1.35;69.66
59531;BME280;45349;48.692;8.186;2023-01-29T10:25:51;99819.03;;;1.39;69.51
59531;BME280;45349;48.692;8.186;2023-01-29T10:28:20;99829.97;;;1.44;70.62
59531;BME280;45349;48.692;8.186;2023-01-29T10:30:49;99832.03;;;1.36;71.95
59531;BME280;45349;48.692;8.186;2023-01-29T10:33:21;99826.06;;;1.56;71.99
59531;BME280;45349;48.692;8.186;2023-01-29T10:35:53;99825.03;;;1.60;71.37
59531;BME280;45349;48.692;8.186;2023-01-29T10:38:27;99823.03;;;1.87;69.81
59531;BME280;45349;48.692;8.186;2023-01-29T10:41:04;99832.88;;;1.77;68.82
59531;BME280;45349;48.692;8.186;2023-01-29T10:43:42;99835.91;;;1.87;69.51
59531;BME280;45349;48.692;8.186;2023-01-29T10:46:21;99840.09;;;1.90;68.87
59531;BME280;45349;48.692;8.186;2023-01-29T10:48:58;99835.78;;;1.90;67.64
59531;BME280;45349;48.692;8.186;2023-01-29T10:51:49;99832.81;;;2.00;68.54
59531;BME280;45349;48.692;8.186;2023-01-29T10:54:29;99829.59;;;1.95;66.20
59531;BME280;45349;48.692;8.186;2023-01-29T10:57:08;99828.84;;;2.12;67.15
59531;BME280;45349;48.692;8.186;2023-01-29T10:59:49;99827.75;;;2.17;68.26
59531;BME280;45349;48.692;8.186;2023-01-29T11:02:19;99828.88;;;2.31;66.72
59531;BME280;45349;48.692;8.186;2023-01-29T11:04:47;99833.47;;;2.05;66.04
59531;BME280;45349;48.692;8.186;2023-01-29T11:07:15;99836.03;;;2.05;65.53
59531;BME280;45349;48.692;8.186;2023-01-29T11:09:45;99831.66;;;1.86;66.52
59531;BME280;45349;48.692;8.186;2023-01-29T11:12:19;99838.66;;;1.83;65.96
59531;BME280;45349;48.692;8.186;2023-01-29T11:14:51;99830.56;;;1.92;66.88
59531;BME280;45349;48.692;8.186;2023-01-29T11:17:21;99829.72;;;1.91;66.41
59531;BME280;45349;48.692;8.186;2023-01-29T11:19:50;99832.06;;;1.77;66.88
59531;BME280;45349;48.692;8.186;2023-01-29T11:22:18;99821.13;;;1.72;66.95
59531;BME280;45349;48.692;8.186;2023-01-29T11:24:45;99813.25;;;1.96;67.89
59531;BME280;45349;48.692;8.186;2023-01-29T11:27:14;99805.16;;;1.84;66.73
59531;BME280;45349;48.692;8.186;2023-01-29T11:29:44;99798.63;;;1.96;66.53
59531;BME280;45349;48.692;8.186;2023-01-29T11:32:13;99796.91;;;2.16;64.86
59531;BME280;45349;48.692;8.186;2023-01-29T11:34:57;99804.81;;;1.92;64.67
59531;BME280;45349;48.692;8.186;2023-01-29T11:37:31;99794.28;;;1.57;66.84
59531;BME280;45349;48.692;8.186;2023-01-29T11:39:58;99795.88;;;1.39;67.38
59531;BME280;45349;48.692;8.186;2023-01-29T11:42:29;99797.78;;;1.56;67.29
59531;BME280;45349;48.692;8.186;2023-01-29T11:44:57;99800.25;;;1.57;66.95
59531;BME280;45349;48.692;8.186;2023-01-29T11:47:25;99803.78;;;1.75;66.85
59531;BME280;45349;48.692;8.186;2023-01-29T11:49:54;99787.53;;;1.75;66.44
59531;BME280;45349;48.692;8.186;2023-01-29T11:52:23;99775.16;;;1.83;66.34
59531;BME280;45349;48.692;8.186;2023-01-29T11:54:52;99776.09;;;1.81;66.70
59531;BME280;45349;48.692;8.186;2023-01-29T11:57:25;99777.06;;;1.99;65.99
59531;BME280;45349;48.692;8.186;2023-01-29T11:59:53;99777.31;;;1.92;65.65
59531;BME280;45349;48.692;8.186;2023-01-29T12:02:32;99768.66;;;1.74;66.21
59531;BME280;45349;48.692;8.186;2023-01-29T12:05:04;99767.63;;;1.79;66.32
59531;BME280;45349;48.692;8.186;2023-01-29T12:07:32;99757.66;;;1.71;66.86
59531;BME280;45349;48.692;8.186;2023-01-29T12:09:59;99762.13;;;1.46;67.82
59531;BME280;45349;48.692;8.186;2023-01-29T12:12:30;99752.97;;;1.60;67.37
59531;BME280;45349;48.692;8.186;2023-01-29T12:15:13;99748.31;;;1.68;67.59
59531;BME280;45349;48.692;8.186;2023-01-29T12:17:44;99735.41;;;1.89;69.08
59531;BME280;45349;48.692;8.186;2023-01-29T12:20:15;99725.91;;;2.10;67.83
59531;BME280;45349;48.692;8.186;2023-01-29T12:22:47;99721.94;;;2.22;66.88
59531;BME280;45349;48.692;8.186;2023-01-29T12:25:20;99711.69;;;2.20;64.91
59531;BME280;45349;48.692;8.186;2023-01-29T12:27:53;99708.19;;;2.21;64.29
59531;BME280;45349;48.692;8.186;2023-01-29T12:30:27;99696.94;;;2.05;65.52
59531;BME280;45349;48.692;8.186;2023-01-29T12:33:01;99691.88;;;1.84;67.45
59531;BME280;45349;48.692;8.186;2023-01-29T12:35:30;99694.31;;;1.87;66.75
59531;BME280;45349;48.692;8.186;2023-01-29T12:38:01;99679.91;;;1.83;67.21
59531;BME280;45349;48.692;8.186;2023-01-29T12:40:33;99667.44;;;1.74;67.70
59531;BME280;45349;48.692;8.186;2023-01-29T12:43:12;99666.13;;;1.84;66.82
59531;BME280;45349;48.692;8.186;2023-01-29T12:45:40;99660.88;;;1.86;67.09
59531;BME280;45349;48.692;8.186;2023-01-29T12:48:13;99660.25;;;1.81;67.82
59531;BME280;45349;48.692;8.186;2023-01-29T12:50:41;99657.25;;;1.90;67.54
59531;BME280;45349;48.692;8.186;2023-01-29T12:53:20;99661.94;;;1.82;67.12
59531;BME280;45349;48.692;8.186;2023-01-29T12:55:51;99663.66;;;1.62;68.86
59531;BME280;45349;48.692;8.186;2023-01-29T12:58:21;99657.59;;;1.44;68.79
59531;BME280;45349;48.692;8.186;2023-01-29T13:00:50;99656.69;;;1.64;67.71
59531;BME280;45349;48.692;8.186;2023-01-29T13:03:24;99647.25;;;1.65;69.15
59531;BME280;45349;48.692;8.186;2023-01-29T13:05:55;99659.84;;;1.52;69.24
59531;BME280;45349;48.692;8.186;2023-01-29T13:08:25;99655.31;;;1.57;69.80
59531;BME280;45349;48.692;8.186;2023-01-29T13:10:54;99650.50;;;1.68;68.24
59531;BME280;45349;48.692;8.186;2023-01-29T13:13:27;99652.94;;;1.71;67.58
59531;BME280;45349;48.692;8.186;2023-01-29T13:15:56;99642.03;;;1.85;67.22
59531;BME280;45349;48.692;8.186;2023-01-29T13:18:39;99643.06;;;2.00;67.27
59531;BME280;45349;48.692;8.186;2023-01-29T13:21:12;99637.72;;;1.86;67.66
59531;BME280;45349;48.692;8.186;2023-01-29T13:23:43;99636.78;;;2.25;66.35
59531;BME280;45349;48.692;8.186;2023-01-29T13:26:11;99634.91;;;2.10;67.79